NASDAQ100

USA: Nasdaq 100

Name ISIN Kurs Stand Diff % Diff +/-
Adobe Inc. US00724F1012 229,85 17:25 Uhr -6,62% -16,30
Advanced Micro Devices Inc. US0079031078 403,85 17:25 Uhr +3,05% +11,95
Airbnb Inc. US0090661010 156,22 17:25 Uhr -2,37% -3,800
Alnylam Pharmaceuticals Inc US02043Q1076 227,60 17:25 Uhr -0,18% -0,4000
Alphabet Inc. US02079K3059 290,45 17:25 Uhr -0,95% -2,800
Alphabet Inc. US02079K1079 287,55 17:25 Uhr -1,49% -4,350
Amazon.com Inc. US0231351067 220,20 17:25 Uhr -1,03% -2,300
American Electric Power Co.Inc US0255371017 107,42 17:25 Uhr +0,30% +0,3200
Amgen Inc. US0311621009 376,55 17:25 Uhr -1,12% -4,250
Analog Devices Inc. US0326541051 310,40 17:25 Uhr +1,95% +5,950
Apple Inc. US0378331005 274,55 17:25 Uhr -3,14% -8,900
Applied Materials Inc. US0382221051 390,95 17:25 Uhr +4,55% +17,00
ARM Holdings PLC US0420682058 216,50 17:25 Uhr +6,13% +12,50
Autodesk Inc. US0527691069 186,64 17:25 Uhr -10,87% -22,76
Automatic Data Processing Inc. US0530151036 239,90 17:25 Uhr -1,38% -3,350
Baker Hughes Co. US05722G1004 54,07 17:25 Uhr -2,58% -1,430
Booking Holdings Inc. US09857L1089 166,65 17:25 Uhr -2,34% -4,000
Broadcom Inc. US11135F1012 306,15 17:25 Uhr +0,26% +0,8000
Cadence Design Systems Inc. US1273871087 248,60 17:25 Uhr -5,98% -15,80
Cisco Systems Inc. US17275R1023 93,87 17:25 Uhr -0,22% -0,2100
Coca-Cola Europacific Pa. PLC GB00BDCPN049 91,40 17:25 Uhr -2,04% -1,900
Comcast Corp. US20030N1019 22,75 17:25 Uhr -0,48% -0,1100
Copart Inc. US2172041061 28,91 17:25 Uhr +1,19% +0,3400
Costco Wholesale Corp. US22160K1051 788,90 17:25 Uhr -1,03% -8,200
Crowdstrike Holdings Inc US22788C1053 182,70 17:25 Uhr +0,04% +0,0800
CSX Corp. US1264081035 42,51 17:25 Uhr +1,13% +0,4750
Datadog Inc. US23804L1035 183,00 17:25 Uhr -0,97% -1,800
DexCom Inc. US2521311074 75,80 17:25 Uhr -1,30% -1,0000
Diamondback Energy Inc. US25278X1090 171,62 17:25 Uhr -1,98% -3,460
Exelon Corp. US30161N1019 37,83 17:25 Uhr -0,84% -0,3200
Fastenal Co. US3119001044 42,72 17:25 Uhr +2,09% +0,8750
Ferrovial N.V. NL0015001FS8 49,89 17:25 Uhr +0,08% +0,0400
Fortinet Inc. US34959E1091 134,08 17:25 Uhr -1,28% -1,740
GE Healthcare Technologies Inc US36266G1076 59,39 17:25 Uhr +0,17% +0,1000
Gilead Sciences Inc. US3755581036 129,44 17:25 Uhr +0,33% +0,4200
Honeywell International Inc. US4385162056 178,86 17:25 Uhr +0,71% +1,260
IDEXX Laboratories Inc. US45168D1046 457,50 17:25 Uhr -0,07% -0,3000
Intel Corp. US4581401001 81,72 17:25 Uhr +5,39% +4,180
Intuit Inc. US4612021034 286,95 17:25 Uhr -4,41% -13,25
Intuitive Surgical Inc. US46120E6023 314,35 17:25 Uhr -0,82% -2,600
Keurig Dr Pepper Inc. US49271V1008 28,23 17:25 Uhr +0,27% +0,0750
KLA Corp. US4824801009 159,62 17:25 Uhr +8,25% +12,16
Kraft Heinz Co., The US5007541064 21,54 17:25 Uhr -1,24% -0,2700
Lam Research Corp. US5128073062 259,90 17:25 Uhr +5,54% +13,65
Linde plc IE000S9YS762 413,00 08:03 Uhr -0,15% -0,6000
Marriott International Inc. US5719032022 288,35 17:25 Uhr -0,14% -0,4000
Marvell Technology Inc. US5738741041 189,46 17:25 Uhr +4,99% +9,000
Mercadolibre Inc. US58733R1023 1.709,60 17:25 Uhr -1,80% -31,40
Meta Platforms Inc. US30303M1027 526,60 17:25 Uhr -1,03% -5,500
Microchip Technology Inc. US5950171042 63,50 17:25 Uhr +2,11% +1,310
Micron Technology Inc. US5951121038 859,10 17:25 Uhr +5,62% +45,70
Microsoft Corp. US5949181045 430,50 17:25 Uhr -2,37% -10,45
Mondelez International Inc. US6092071058 53,03 17:25 Uhr +0,66% +0,3500
Monster Beverage Corp. (NEW) US61174X1090 37,82 17:25 Uhr -1,02% -0,3900
Netflix Inc. US64110L1061 68,42 17:25 Uhr -3,58% -2,540
NVIDIA Corp. US67066G1040 197,92 21:34 Uhr +1,35% +2,640
NXP Semiconductors NV NL0009538784 195,26 17:25 Uhr +0,31% +0,6000
O’Reilly Automotive Inc.[New] US67103H1077 75,31 17:25 Uhr +0,33% +0,2500
Old Dominion Freight Line Inc. US6795801009 160,36 17:25 Uhr +1,34% +2,120
Paccar Inc. US6937181088 107,22 17:25 Uhr +1,17% +1,240
Palo Alto Networks Inc. US6974351057 284,10 17:25 Uhr +0,37% +1,050
Paychex Inc. US7043261079 105,68 17:25 Uhr -0,86% -0,9200
PayPal Holdings Inc. US70450Y1038 47,11 17:25 Uhr -1,26% -0,6000
PepsiCo Inc. US7134481081 119,22 17:25 Uhr -0,70% -0,8400
QUALCOMM Inc. US7475251036 145,28 17:25 Uhr -0,03% -0,0400
Regeneron Pharmaceuticals Inc. US75886F1075 717,40 17:25 Uhr -0,98% -7,100
Roper Technologies Inc. US7766961061 351,80 17:25 Uhr -3,14% -11,40
Ross Stores Inc. US7782961038 198,74 17:25 Uhr +0,08% +0,1600
SanDisk Corp. US80004C2008 1.450,00 17:25 Uhr +10,69% +140,00
Seagate Technolog.Holdings PLC IE00BKVD2N49 718,00 17:25 Uhr +5,28% +36,00
Shopify Inc. CA82509L1076 127,28 17:25 Uhr +2,78% +3,440
Space Exploration Techs. Corp. US84615Q1031 128,62 17:25 Uhr +0,17% +0,2200
Starbucks Corp. US8552441094 90,62 17:25 Uhr -0,60% -0,5500
Synopsys Inc. US8716071076 332,00 17:25 Uhr -7,52% -27,00
T-Mobile US Inc. US8725901040 156,62 17:25 Uhr -3,09% -5,000
Tesla Inc. US88160R1014 303,65 17:25 Uhr -7,11% -23,25
Texas Instruments Inc. US8825081040 221,95 17:25 Uhr +2,40% +5,200
Thomson Reuters Corp. CA8849038812 91,75 17:25 Uhr -3,17% -3,000
Vertex Pharmaceuticals Inc. US92532F1003 473,90 17:25 Uhr -1,15% -5,500
Walmart Inc. US9311421039 92,64 17:25 Uhr -1,04% -0,9700
WARNER BROS. DISCOVERY INC. US9344231041 24,32 17:25 Uhr -0,18% -0,0450
Western Digital Corp. US9581021055 394,60 17:25 Uhr +4,16% +15,75
Workday Inc. US98138H1014 170,84 17:25 Uhr -3,49% -6,180

Die Liste zeigt die im Index enthaltenen Werte, sofern diese an der Börse Hannover gehandelt werden. Alle Angaben ohne Gewähr.

Weitere Auslandsindizes

AEXNiederlande
ATXÖsterreich
BEL 20Belgien
CAC 40Frankreich
Dow JonesUSA
EuroStoxx 50Eurozone
FTSE 100Großbritannien
MIBItalien
IBEX 35Spanien
Stoxx Europe 50Europa